Pagrindinis puslapis
METAR-TAF:

METAR-TAF

Oro uostai :

Krabi, Tailandas

platuma: 08-06-03N, ilguma: 098-59-05E, Aukštis: 25 m

Dabartinis oras

Ataskaita buvo paskelbta 1 valandą ir 1 minutes, ne 06:00 UTC
Vėjas 11 kt iš Rytų/Šiaurės Rytų, svyruoja nuo Šiaurės ir Rytų
Temperatūra 33°C
Drėgmė 49%
Slėgis 1013 hPa
Matomumas 10 km arba daugiau
Su prošvaistėmis ne aukštis 2000 ft

METAR: VTSG 230600Z 07011KT 010V100 9999 BKN020 33/21 Q1013 NOSIG

Laikas: 14:01 (07:01 UTC)

Prognozė

Ataskaita buvo paskelbta 2 valandos ir 1 minutes, ne 05:00 UTC
Prognozė galioja nuo 23 metu 06 UTC su 24 metu 06 UTC
Vėjas 8 kt iš Rytų
Matomumas 10 km arba daugiau
Išsisklaidę debesys ne aukštis 2000 ft

TAF: VTSG 230500Z 2306/2406 08008KT 9999 SCT020

Orai ataskaitas ir orų prognozės (METAR, TAF).

turimą stotys yra geltonos ir raudonos taškus žemėlapyje.

Perkelti pele per norėdami pamatyti stoties vardą.

Tada spustelėkite, norėdami matyti oro stebėjimo ir prognozės.

Norėdami pakeisti žemėlapį: spustelėkite ant žalios mygtukų su juodo kryžiaus žemyn,; žalią mygtuką su brūkšneliu, jei norite nutolinti; arba žalių rodyklių gretimoms žemėlapius.


METAR-TAF: